sensor_id;sensor_type;location;lat;lon;timestamp;P1;durP1;ratioP1;P2;durP2;ratioP2
44446;SDS011;30152;52.066;5.358;2023-11-19T08:26:42;54.13;;;7.60;;
44446;SDS011;30152;52.066;5.358;2023-11-19T08:29:07;51.90;;;7.33;;
44446;SDS011;30152;52.066;5.358;2023-11-19T08:31:34;54.33;;;7.73;;
44446;SDS011;30152;52.066;5.358;2023-11-19T08:34:00;47.72;;;7.82;;
44446;SDS011;30152;52.066;5.358;2023-11-19T08:36:26;50.45;;;7.65;;
44446;SDS011;30152;52.066;5.358;2023-11-19T08:38:54;50.97;;;7.82;;
44446;SDS011;30152;52.066;5.358;2023-11-19T08:41:21;53.67;;;8.15;;
44446;SDS011;30152;52.066;5.358;2023-11-19T08:43:46;48.30;;;7.22;;
44446;SDS011;30152;52.066;5.358;2023-11-19T08:46:12;46.33;;;8.00;;
44446;SDS011;30152;52.066;5.358;2023-11-19T08:48:38;51.40;;;7.63;;
44446;SDS011;30152;52.066;5.358;2023-11-19T08:51:04;53.73;;;7.43;;
44446;SDS011;30152;52.066;5.358;2023-11-19T08:53:30;51.05;;;7.90;;
44446;SDS011;30152;52.066;5.358;2023-11-19T08:55:55;51.87;;;7.53;;
44446;SDS011;30152;52.066;5.358;2023-11-19T08:58:21;54.20;;;8.00;;
44446;SDS011;30152;52.066;5.358;2023-11-19T09:00:47;53.25;;;7.65;;
44446;SDS011;30152;52.066;5.358;2023-11-19T09:03:13;51.97;;;7.07;;
44446;SDS011;30152;52.066;5.358;2023-11-19T09:05:38;52.73;;;7.77;;
44446;SDS011;30152;52.066;5.358;2023-11-19T09:08:04;51.80;;;7.22;;
44446;SDS011;30152;52.066;5.358;2023-11-19T09:10:30;48.33;;;7.03;;
44446;SDS011;30152;52.066;5.358;2023-11-19T09:12:56;42.60;;;7.03;;
44446;SDS011;30152;52.066;5.358;2023-11-19T09:15:22;50.40;;;7.72;;
44446;SDS011;30152;52.066;5.358;2023-11-19T09:17:47;43.97;;;7.40;;
44446;SDS011;30152;52.066;5.358;2023-11-19T09:20:13;51.80;;;7.30;;
44446;SDS011;30152;52.066;5.358;2023-11-19T09:22:40;42.22;;;7.82;;
44446;SDS011;30152;52.066;5.358;2023-11-19T09:25:06;49.33;;;7.55;;
44446;SDS011;30152;52.066;5.358;2023-11-19T09:27:32;42.50;;;7.05;;
44446;SDS011;30152;52.066;5.358;2023-11-19T09:29:58;49.10;;;8.20;;
44446;SDS011;30152;52.066;5.358;2023-11-19T09:32:24;47.90;;;7.65;;
44446;SDS011;30152;52.066;5.358;2023-11-19T09:34:50;42.97;;;6.73;;
44446;SDS011;30152;52.066;5.358;2023-11-19T09:37:16;45.13;;;7.87;;
44446;SDS011;30152;52.066;5.358;2023-11-19T09:39:42;51.67;;;7.28;;
44446;SDS011;30152;52.066;5.358;2023-11-19T09:42:10;45.17;;;6.60;;
44446;SDS011;30152;52.066;5.358;2023-11-19T09:44:37;46.80;;;7.75;;
44446;SDS011;30152;52.066;5.358;2023-11-19T09:47:04;44.90;;;6.68;;
44446;SDS011;30152;52.066;5.358;2023-11-19T09:49:31;41.75;;;6.50;;
44446;SDS011;30152;52.066;5.358;2023-11-19T09:52:00;51.05;;;7.88;;
44446;SDS011;30152;52.066;5.358;2023-11-19T09:54:25;47.72;;;7.05;;
44446;SDS011;30152;52.066;5.358;2023-11-19T09:56:51;47.10;;;7.13;;
44446;SDS011;30152;52.066;5.358;2023-11-19T09:59:17;49.42;;;7.35;;
44446;SDS011;30152;52.066;5.358;2023-11-19T10:01:44;49.93;;;7.60;;
44446;SDS011;30152;52.066;5.358;2023-11-19T10:04:10;47.08;;;7.03;;
44446;SDS011;30152;52.066;5.358;2023-11-19T10:06:42;42.30;;;6.82;;
44446;SDS011;30152;52.066;5.358;2023-11-19T10:09:07;45.25;;;7.07;;
44446;SDS011;30152;52.066;5.358;2023-11-19T10:11:33;57.73;;;8.53;;
44446;SDS011;30152;52.066;5.358;2023-11-19T10:13:59;42.10;;;7.38;;
44446;SDS011;30152;52.066;5.358;2023-11-19T10:16:29;47.10;;;7.00;;
44446;SDS011;30152;52.066;5.358;2023-11-19T10:18:56;43.55;;;6.82;;
44446;SDS011;30152;52.066;5.358;2023-11-19T10:21:21;47.73;;;7.40;;
44446;SDS011;30152;52.066;5.358;2023-11-19T10:23:52;40.50;;;6.93;;
44446;SDS011;30152;52.066;5.358;2023-11-19T10:26:19;43.95;;;7.55;;
44446;SDS011;30152;52.066;5.358;2023-11-19T10:28:46;43.37;;;6.30;;
44446;SDS011;30152;52.066;5.358;2023-11-19T10:31:12;46.75;;;7.28;;
44446;SDS011;30152;52.066;5.358;2023-11-19T10:33:42;41.85;;;6.90;;
44446;SDS011;30152;52.066;5.358;2023-11-19T10:36:10;45.53;;;6.35;;
44446;SDS011;30152;52.066;5.358;2023-11-19T10:38:39;47.45;;;7.80;;
44446;SDS011;30152;52.066;5.358;2023-11-19T10:41:05;38.65;;;7.13;;
44446;SDS011;30152;52.066;5.358;2023-11-19T10:43:31;35.70;;;6.00;;
44446;SDS011;30152;52.066;5.358;2023-11-19T10:46:12;45.17;;;6.70;;
44446;SDS011;30152;52.066;5.358;2023-11-19T10:48:39;39.30;;;7.63;;
44446;SDS011;30152;52.066;5.358;2023-11-19T10:51:05;52.73;;;7.40;;
44446;SDS011;30152;52.066;5.358;2023-11-19T10:53:33;42.75;;;7.30;;
44446;SDS011;30152;52.066;5.358;2023-11-19T10:56:01;42.95;;;6.45;;
44446;SDS011;30152;52.066;5.358;2023-11-19T10:58:28;44.03;;;7.88;;
44446;SDS011;30152;52.066;5.358;2023-11-19T11:00:57;39.80;;;7.07;;
44446;SDS011;30152;52.066;5.358;2023-11-19T11:03:29;41.25;;;6.68;;
44446;SDS011;30152;52.066;5.358;2023-11-19T11:06:00;38.05;;;6.00;;
44446;SDS011;30152;52.066;5.358;2023-11-19T11:08:28;41.40;;;6.10;;
44446;SDS011;30152;52.066;5.358;2023-11-19T11:10:55;39.40;;;7.18;;
44446;SDS011;30152;52.066;5.358;2023-11-19T11:13:23;37.92;;;7.40;;
44446;SDS011;30152;52.066;5.358;2023-11-19T11:15:50;42.53;;;7.28;;
44446;SDS011;30152;52.066;5.358;2023-11-19T11:18:16;41.05;;;6.65;;
44446;SDS011;30152;52.066;5.358;2023-11-19T11:20:44;49.25;;;7.63;;
44446;SDS011;30152;52.066;5.358;2023-11-19T11:29:01;39.33;;;5.88;;
44446;SDS011;30152;52.066;5.358;2023-11-19T11:31:39;46.88;;;6.72;;
44446;SDS011;30152;52.066;5.358;2023-11-19T11:39:33;44.97;;;6.97;;
44446;SDS011;30152;52.066;5.358;2023-11-19T11:50:10;38.40;;;6.70;;
44446;SDS011;30152;52.066;5.358;2023-11-19T11:55:24;40.17;;;6.25;;
44446;SDS011;30152;52.066;5.358;2023-11-19T11:57:50;37.95;;;6.28;;
44446;SDS011;30152;52.066;5.358;2023-11-19T12:00:21;38.87;;;6.33;;
44446;SDS011;30152;52.066;5.358;2023-11-19T12:02:51;40.97;;;7.07;;
44446;SDS011;30152;52.066;5.358;2023-11-19T12:05:16;42.30;;;6.97;;
44446;SDS011;30152;52.066;5.358;2023-11-19T12:07:44;35.13;;;5.97;;
44446;SDS011;30152;52.066;5.358;2023-11-19T12:10:20;36.05;;;6.10;;
44446;SDS011;30152;52.066;5.358;2023-11-19T12:12:47;34.97;;;6.53;;
44446;SDS011;30152;52.066;5.358;2023-11-19T12:15:13;37.15;;;6.50;;
44446;SDS011;30152;52.066;5.358;2023-11-19T12:17:43;34.40;;;5.50;;
44446;SDS011;30152;52.066;5.358;2023-11-19T12:20:14;31.90;;;5.43;;
44446;SDS011;30152;52.066;5.358;2023-11-19T12:22:41;34.75;;;5.78;;
44446;SDS011;30152;52.066;5.358;2023-11-19T12:25:08;33.15;;;5.65;;
44446;SDS011;30152;52.066;5.358;2023-11-19T12:27:35;29.67;;;5.47;;
44446;SDS011;30152;52.066;5.358;2023-11-19T12:30:02;34.95;;;5.28;;
44446;SDS011;30152;52.066;5.358;2023-11-19T12:32:39;43.17;;;6.22;;
44446;SDS011;30152;52.066;5.358;2023-11-19T12:35:05;39.03;;;6.50;;
44446;SDS011;30152;52.066;5.358;2023-11-19T12:37:32;34.42;;;5.80;;
44446;SDS011;30152;52.066;5.358;2023-11-19T12:39:58;32.20;;;5.20;;
44446;SDS011;30152;52.066;5.358;2023-11-19T12:42:36;38.33;;;6.38;;
44446;SDS011;30152;52.066;5.358;2023-11-19T12:45:03;38.17;;;5.60;;
44446;SDS011;30152;52.066;5.358;2023-11-19T12:47:29;37.33;;;5.70;;
44446;SDS011;30152;52.066;5.358;2023-11-19T12:49:58;36.00;;;6.30;;
44446;SDS011;30152;52.066;5.358;2023-11-19T12:52:23;36.30;;;6.82;;
44446;SDS011;30152;52.066;5.358;2023-11-19T12:54:49;38.70;;;5.87;;
44446;SDS011;30152;52.066;5.358;2023-11-19T12:57:15;37.90;;;6.43;;
44446;SDS011;30152;52.066;5.358;2023-11-19T12:59:41;35.42;;;6.45;;
44446;SDS011;30152;52.066;5.358;2023-11-19T13:02:08;35.38;;;5.97;;
44446;SDS011;30152;52.066;5.358;2023-11-19T13:04:33;39.53;;;6.47;;
44446;SDS011;30152;52.066;5.358;2023-11-19T13:06:59;34.53;;;5.63;;
44446;SDS011;30152;52.066;5.358;2023-11-19T13:09:26;34.95;;;5.65;;
44446;SDS011;30152;52.066;5.358;2023-11-19T13:11:53;30.83;;;5.83;;
44446;SDS011;30152;52.066;5.358;2023-11-19T13:14:19;36.30;;;6.57;;
44446;SDS011;30152;52.066;5.358;2023-11-19T13:16:45;41.25;;;6.35;;
44446;SDS011;30152;52.066;5.358;2023-11-19T13:19:11;39.05;;;5.65;;
44446;SDS011;30152;52.066;5.358;2023-11-19T13:21:37;34.58;;;6.25;;
44446;SDS011;30152;52.066;5.358;2023-11-19T13:24:04;36.65;;;6.53;;
44446;SDS011;30152;52.066;5.358;2023-11-19T13:26:30;40.13;;;6.30;;
44446;SDS011;30152;52.066;5.358;2023-11-19T13:28:56;40.07;;;5.97;;
44446;SDS011;30152;52.066;5.358;2023-11-19T13:31:22;48.83;;;7.57;;
44446;SDS011;30152;52.066;5.358;2023-11-19T17:37:22;22.83;;;3.42;;
44446;SDS011;30152;52.066;5.358;2023-11-19T17:39:48;26.23;;;4.45;;
44446;SDS011;30152;52.066;5.358;2023-11-19T17:42:14;33.63;;;5.53;;
44446;SDS011;30152;52.066;5.358;2023-11-19T17:44:40;31.77;;;5.60;;
44446;SDS011;30152;52.066;5.358;2023-11-19T17:47:06;33.60;;;5.57;;
44446;SDS011;30152;52.066;5.358;2023-11-19T17:49:32;32.63;;;5.40;;
44446;SDS011;30152;52.066;5.358;2023-11-19T17:51:59;38.17;;;6.50;;
44446;SDS011;30152;52.066;5.358;2023-11-19T17:54:25;33.57;;;5.10;;
44446;SDS011;30152;52.066;5.358;2023-11-19T17:56:51;35.92;;;6.32;;
44446;SDS011;30152;52.066;5.358;2023-11-19T17:59:17;32.45;;;6.25;;
44446;SDS011;30152;52.066;5.358;2023-11-19T18:01:44;42.93;;;6.40;;
44446;SDS011;30152;52.066;5.358;2023-11-19T18:04:10;41.40;;;6.40;;
44446;SDS011;30152;52.066;5.358;2023-11-19T18:06:36;30.20;;;5.13;;
44446;SDS011;30152;52.066;5.358;2023-11-19T18:09:02;39.28;;;5.88;;
44446;SDS011;30152;52.066;5.358;2023-11-19T18:11:35;38.40;;;6.53;;
44446;SDS011;30152;52.066;5.358;2023-11-19T18:14:01;31.95;;;6.10;;
44446;SDS011;30152;52.066;5.358;2023-11-19T18:16:27;35.60;;;5.90;;
44446;SDS011;30152;52.066;5.358;2023-11-19T18:18:53;37.17;;;6.50;;
44446;SDS011;30152;52.066;5.358;2023-11-19T18:21:18;42.97;;;6.30;;
44446;SDS011;30152;52.066;5.358;2023-11-19T18:23:44;39.73;;;6.60;;
44446;SDS011;30152;52.066;5.358;2023-11-19T18:26:10;35.70;;;6.05;;
44446;SDS011;30152;52.066;5.358;2023-11-19T18:28:36;36.00;;;6.50;;
44446;SDS011;30152;52.066;5.358;2023-11-19T18:31:02;32.58;;;5.95;;
44446;SDS011;30152;52.066;5.358;2023-11-19T18:33:28;40.75;;;6.88;;
44446;SDS011;30152;52.066;5.358;2023-11-19T18:35:54;37.22;;;6.18;;
44446;SDS011;30152;52.066;5.358;2023-11-19T18:38:20;33.73;;;6.53;;
44446;SDS011;30152;52.066;5.358;2023-11-19T18:40:46;36.60;;;6.13;;
44446;SDS011;30152;52.066;5.358;2023-11-19T18:43:11;37.22;;;6.78;;
44446;SDS011;30152;52.066;5.358;2023-11-19T18:45:38;34.83;;;6.43;;
44446;SDS011;30152;52.066;5.358;2023-11-19T18:48:04;34.92;;;6.20;;
44446;SDS011;30152;52.066;5.358;2023-11-19T18:50:31;34.60;;;6.10;;
44446;SDS011;30152;52.066;5.358;2023-11-19T18:52:57;29.25;;;5.65;;
44446;SDS011;30152;52.066;5.358;2023-11-19T18:55:23;37.47;;;6.00;;
44446;SDS011;30152;52.066;5.358;2023-11-19T18:57:48;33.95;;;6.95;;
44446;SDS011;30152;52.066;5.358;2023-11-19T19:00:14;30.50;;;6.15;;
44446;SDS011;30152;52.066;5.358;2023-11-19T19:02:41;34.13;;;7.10;;
44446;SDS011;30152;52.066;5.358;2023-11-19T19:05:07;39.23;;;7.27;;
44446;SDS011;30152;52.066;5.358;2023-11-19T19:07:32;34.47;;;6.85;;
44446;SDS011;30152;52.066;5.358;2023-11-19T19:09:58;34.90;;;6.23;;
44446;SDS011;30152;52.066;5.358;2023-11-19T19:12:26;34.33;;;7.30;;
44446;SDS011;30152;52.066;5.358;2023-11-19T19:14:53;26.63;;;5.67;;
44446;SDS011;30152;52.066;5.358;2023-11-19T19:17:20;33.00;;;6.07;;
44446;SDS011;30152;52.066;5.358;2023-11-19T19:19:46;33.22;;;6.75;;
44446;SDS011;30152;52.066;5.358;2023-11-19T19:22:12;30.80;;;6.63;;
44446;SDS011;30152;52.066;5.358;2023-11-19T19:24:37;31.55;;;6.47;;
44446;SDS011;30152;52.066;5.358;2023-11-19T19:27:04;32.22;;;6.72;;
44446;SDS011;30152;52.066;5.358;2023-11-19T19:29:29;25.30;;;6.13;;
44446;SDS011;30152;52.066;5.358;2023-11-19T19:31:55;31.98;;;6.90;;
44446;SDS011;30152;52.066;5.358;2023-11-19T19:34:23;32.85;;;6.68;;
44446;SDS011;30152;52.066;5.358;2023-11-19T19:36:51;26.37;;;6.90;;
44446;SDS011;30152;52.066;5.358;2023-11-19T19:39:17;36.42;;;7.60;;
44446;SDS011;30152;52.066;5.358;2023-11-19T19:41:43;31.85;;;7.03;;
44446;SDS011;30152;52.066;5.358;2023-11-19T19:44:09;39.28;;;7.78;;
44446;SDS011;30152;52.066;5.358;2023-11-19T19:46:40;31.88;;;6.63;;
44446;SDS011;30152;52.066;5.358;2023-11-19T19:49:06;32.22;;;7.43;;
44446;SDS011;30152;52.066;5.358;2023-11-19T19:51:33;30.92;;;6.97;;
44446;SDS011;30152;52.066;5.358;2023-11-19T19:53:59;28.67;;;7.10;;
44446;SDS011;30152;52.066;5.358;2023-11-19T19:56:24;30.48;;;6.60;;
44446;SDS011;30152;52.066;5.358;2023-11-19T19:58:50;30.45;;;6.45;;
44446;SDS011;30152;52.066;5.358;2023-11-19T20:01:16;27.90;;;6.57;;
44446;SDS011;30152;52.066;5.358;2023-11-19T20:03:42;32.10;;;6.75;;
44446;SDS011;30152;52.066;5.358;2023-11-19T20:06:07;33.70;;;6.20;;
44446;SDS011;30152;52.066;5.358;2023-11-19T20:08:36;28.75;;;6.60;;
44446;SDS011;30152;52.066;5.358;2023-11-19T20:11:03;39.72;;;6.93;;
44446;SDS011;30152;52.066;5.358;2023-11-19T20:13:30;43.38;;;6.40;;
44446;SDS011;30152;52.066;5.358;2023-11-19T20:15:56;39.17;;;6.85;;
44446;SDS011;30152;52.066;5.358;2023-11-19T20:18:23;42.53;;;6.95;;
44446;SDS011;30152;52.066;5.358;2023-11-19T20:20:48;41.80;;;7.03;;
44446;SDS011;30152;52.066;5.358;2023-11-19T20:23:14;42.37;;;7.10;;
44446;SDS011;30152;52.066;5.358;2023-11-19T20:25:40;42.75;;;6.82;;
44446;SDS011;30152;52.066;5.358;2023-11-19T20:28:07;39.47;;;6.40;;
44446;SDS011;30152;52.066;5.358;2023-11-19T20:30:32;45.60;;;6.43;;
44446;SDS011;30152;52.066;5.358;2023-11-19T20:32:58;48.13;;;7.00;;
44446;SDS011;30152;52.066;5.358;2023-11-19T20:35:24;47.65;;;6.35;;
44446;SDS011;30152;52.066;5.358;2023-11-19T20:37:50;41.93;;;5.70;;
44446;SDS011;30152;52.066;5.358;2023-11-19T20:40:16;48.47;;;5.88;;
44446;SDS011;30152;52.066;5.358;2023-11-19T20:42:42;44.42;;;5.85;;
44446;SDS011;30152;52.066;5.358;2023-11-19T20:45:08;53.90;;;7.18;;
44446;SDS011;30152;52.066;5.358;2023-11-19T20:47:35;42.65;;;6.53;;
44446;SDS011;30152;52.066;5.358;2023-11-19T20:50:01;49.72;;;6.97;;
44446;SDS011;30152;52.066;5.358;2023-11-19T20:52:30;46.35;;;5.93;;
44446;SDS011;30152;52.066;5.358;2023-11-19T20:54:56;44.95;;;7.15;;
44446;SDS011;30152;52.066;5.358;2023-11-19T20:57:21;47.10;;;6.20;;
44446;SDS011;30152;52.066;5.358;2023-11-19T20:59:47;49.78;;;6.65;;
44446;SDS011;30152;52.066;5.358;2023-11-19T21:02:13;35.93;;;5.13;;
44446;SDS011;30152;52.066;5.358;2023-11-19T21:04:40;46.45;;;6.78;;
44446;SDS011;30152;52.066;5.358;2023-11-19T21:07:08;38.90;;;5.75;;
44446;SDS011;30152;52.066;5.358;2023-11-19T21:09:35;43.88;;;6.15;;
44446;SDS011;30152;52.066;5.358;2023-11-19T21:12:01;45.47;;;5.40;;
44446;SDS011;30152;52.066;5.358;2023-11-19T21:14:28;42.42;;;5.45;;
44446;SDS011;30152;52.066;5.358;2023-11-19T21:16:54;44.35;;;5.93;;
44446;SDS011;30152;52.066;5.358;2023-11-19T21:19:21;36.38;;;5.63;;
44446;SDS011;30152;52.066;5.358;2023-11-19T21:21:46;43.60;;;6.97;;
44446;SDS011;30152;52.066;5.358;2023-11-19T21:24:12;42.60;;;5.82;;
44446;SDS011;30152;52.066;5.358;2023-11-19T21:26:38;43.73;;;5.97;;
44446;SDS011;30152;52.066;5.358;2023-11-19T21:29:03;42.30;;;5.43;;
44446;SDS011;30152;52.066;5.358;2023-11-19T21:31:30;44.25;;;7.55;;
44446;SDS011;30152;52.066;5.358;2023-11-19T21:33:56;47.08;;;6.78;;
44446;SDS011;30152;52.066;5.358;2023-11-19T21:36:22;40.35;;;5.80;;
44446;SDS011;30152;52.066;5.358;2023-11-19T21:38:49;41.08;;;6.40;;
44446;SDS011;30152;52.066;5.358;2023-11-19T21:41:15;46.57;;;7.73;;
44446;SDS011;30152;52.066;5.358;2023-11-19T21:43:41;39.80;;;5.80;;
44446;SDS011;30152;52.066;5.358;2023-11-19T21:46:06;50.00;;;7.50;;
44446;SDS011;30152;52.066;5.358;2023-11-19T21:48:32;34.50;;;6.22;;
44446;SDS011;30152;52.066;5.358;2023-11-19T21:51:02;48.40;;;6.17;;
44446;SDS011;30152;52.066;5.358;2023-11-19T21:53:30;33.90;;;5.75;;
44446;SDS011;30152;52.066;5.358;2023-11-19T21:55:56;46.60;;;6.50;;
44446;SDS011;30152;52.066;5.358;2023-11-19T21:58:23;38.30;;;6.23;;
44446;SDS011;30152;52.066;5.358;2023-11-19T22:00:50;43.63;;;6.68;;
44446;SDS011;30152;52.066;5.358;2023-11-19T22:03:16;40.58;;;5.30;;
44446;SDS011;30152;52.066;5.358;2023-11-19T22:05:43;35.35;;;6.00;;
44446;SDS011;30152;52.066;5.358;2023-11-19T22:08:09;41.50;;;6.03;;
44446;SDS011;30152;52.066;5.358;2023-11-19T22:10:36;43.38;;;7.03;;
44446;SDS011;30152;52.066;5.358;2023-11-19T22:13:02;35.60;;;5.40;;
44446;SDS011;30152;52.066;5.358;2023-11-19T22:15:28;41.08;;;5.63;;
44446;SDS011;30152;52.066;5.358;2023-11-19T22:17:54;34.50;;;5.72;;
44446;SDS011;30152;52.066;5.358;2023-11-19T22:20:20;37.70;;;5.28;;
44446;SDS011;30152;52.066;5.358;2023-11-19T22:22:46;39.60;;;5.57;;
44446;SDS011;30152;52.066;5.358;2023-11-19T22:25:12;40.10;;;5.75;;
44446;SDS011;30152;52.066;5.358;2023-11-19T22:27:39;34.83;;;4.85;;
44446;SDS011;30152;52.066;5.358;2023-11-19T22:30:06;39.58;;;5.85;;
44446;SDS011;30152;52.066;5.358;2023-11-19T22:32:33;38.00;;;5.63;;
